Time;durP1;ratioP1;P1;durP2;ratioP2;P2;SDS_P1;SDS_P2;PMS_P1;PMS_P2;Temp;Humidity;BMP_temperature;BMP_pressure;BME280_temperature;BME280_humidity;BME280_pressure;Samples;Min_cycle;Max_cycle;Signal;HPM_P1;HPM_P2
2022/07/15 00:00:51;;;;;;;6.35;1.88;;;20.00;44.60;;;;;;4981540;28;20054;-50
2022/07/15 00:03:18;;;;;;;8.32;1.83;;;20.00;44.80;;;;;;4981874;28;20055;-47
2022/07/15 00:05:45;;;;;;;5.90;1.38;;;19.90;44.90;;;;;;4981380;28;20058;-49
2022/07/15 00:08:13;;;;;;;6.72;1.80;;;19.90;44.90;;;;;;4984392;28;20065;-46
2022/07/15 00:10:40;;;;;;;4.18;1.33;;;19.80;45.00;;;;;;4983041;28;20498;-46
2022/07/15 00:13:09;;;;;;;3.08;1.13;;;19.80;45.20;;;;;;4982204;28;20070;-46
2022/07/15 00:15:37;;;;;;;6.13;1.70;;;19.70;45.30;;;;;;4982140;28;20494;-48
2022/07/15 00:18:05;;;;;;;5.68;1.55;;;19.70;45.60;;;;;;4980729;28;20054;-48
2022/07/15 00:20:34;;;;;;;3.58;1.38;;;19.70;45.70;;;;;;4981764;28;20058;-48
2022/07/15 00:23:02;;;;;;;5.25;1.52;;;19.70;45.60;;;;;;4982360;28;20065;-49
2022/07/15 00:25:30;;;;;;;3.60;1.40;;;19.70;45.70;;;;;;4979558;28;20421;-49
2022/07/15 00:28:00;;;;;;;3.00;1.25;;;19.70;45.70;;;;;;4980098;28;20103;-47
2022/07/15 00:30:31;;;;;;;4.22;1.35;;;19.70;45.90;;;;;;4980938;28;20411;-47
2022/07/15 00:33:00;;;;;;;4.15;1.33;;;19.70;45.90;;;;;;4980583;28;20050;-46
2022/07/15 00:35:27;;;;;;;4.20;1.23;;;19.70;45.80;;;;;;4977941;28;20058;-49
2022/07/15 00:37:55;;;;;;;3.80;1.30;;;19.70;45.90;;;;;;4982670;28;20054;-47
2022/07/15 00:40:23;;;;;;;4.03;1.52;;;19.60;45.80;;;;;;4982580;28;20061;-46
2022/07/15 00:42:51;;;;;;;7.18;1.70;;;19.60;45.90;;;;;;4980570;28;20062;-48
2022/07/15 00:45:20;;;;;;;4.85;1.50;;;19.60;46.00;;;;;;4980233;28;20053;-49
2022/07/15 00:47:51;;;;;;;5.15;1.40;;;19.50;46.00;;;;;;4978975;28;20050;-46
2022/07/15 00:50:20;;;;;;;5.25;1.30;;;19.60;46.20;;;;;;4980944;28;20561;-48
2022/07/15 00:52:51;;;;;;;4.68;1.23;;;19.50;46.40;;;;;;4981381;28;20050;-48
2022/07/15 00:55:21;;;;;;;3.97;1.52;;;19.50;46.50;;;;;;4981698;28;20057;-47
2022/07/15 00:57:52;;;;;;;4.55;1.38;;;19.50;46.50;;;;;;4980486;28;20406;-50
2022/07/15 01:00:21;;;;;;;2.80;1.40;;;19.40;46.50;;;;;;4982570;28;20506;-47
2022/07/15 01:02:50;;;;;;;1.77;1.45;;;19.40;46.60;;;;;;4981445;28;20050;-47
2022/07/15 01:05:19;;;;;;;3.15;1.30;;;19.40;46.90;;;;;;4982828;28;20416;-50
2022/07/15 01:07:49;;;;;;;3.35;1.15;;;19.30;46.80;;;;;;4981828;28;20085;-47
2022/07/15 01:10:17;;;;;;;3.30;1.23;;;19.30;46.90;;;;;;4982388;28;20069;-46
2022/07/15 01:12:46;;;;;;;3.78;1.25;;;19.30;46.90;;;;;;4981770;28;20046;-47
2022/07/15 01:15:14;;;;;;;5.30;1.42;;;19.30;46.90;;;;;;4981204;28;20061;-50
2022/07/15 01:17:41;;;;;;;6.07;1.80;;;19.30;46.90;;;;;;4981243;28;20057;-50
2022/07/15 01:20:12;;;;;;;3.92;1.50;;;19.30;47.00;;;;;;4982097;28;20080;-48
2022/07/15 01:22:41;;;;;;;4.55;1.55;;;19.30;47.20;;;;;;4980771;28;20062;-47
2022/07/15 01:25:09;;;;;;;5.63;1.73;;;19.20;47.20;;;;;;4979128;28;20050;-48
2022/07/15 01:27:37;;;;;;;6.70;1.77;;;19.20;47.40;;;;;;4978794;28;20062;-47
2022/07/15 01:30:06;;;;;;;6.38;2.33;;;19.20;47.40;;;;;;4983209;28;20406;-48
2022/07/15 01:32:33;;;;;;;4.18;1.83;;;19.10;47.40;;;;;;4983059;28;20489;-46
2022/07/15 01:35:01;;;;;;;5.15;2.00;;;19.10;47.50;;;;;;4983913;28;20054;-49
2022/07/15 01:37:29;;;;;;;8.77;2.00;;;19.00;47.70;;;;;;4984678;28;20502;-46
2022/07/15 01:40:07;;;;;;;;;;;;;;;;;;;;;
2022/07/15 01:42:35;;;;;;;7.18;2.08;;;18.80;48.20;;;;;;4991618;28;20046;-48
2022/07/15 01:45:03;;;;;;;4.28;1.70;;;18.70;48.40;;;;;;4985738;28;20058;-48
2022/07/15 01:47:32;;;;;;;9.57;2.83;;;18.60;48.60;;;;;;4981062;28;20054;-47
2022/07/15 01:49:58;;;;;;;4.40;1.90;;;18.60;49.00;;;;;;4984963;28;20058;-49
2022/07/15 01:52:26;;;;;;;6.57;2.35;;;18.50;49.30;;;;;;4985233;28;20066;-47
2022/07/15 01:54:53;;;;;;;4.35;1.73;;;18.40;49.70;;;;;;4986648;28;20058;-46
2022/07/15 01:57:22;;;;;;;8.40;2.13;;;18.30;50.00;;;;;;4983986;28;20094;-50
2022/07/15 01:59:49;;;;;;;4.60;1.65;;;18.30;50.30;;;;;;4983155;28;20054;-47
2022/07/15 02:02:17;;;;;;;5.55;2.03;;;18.30;50.30;;;;;;4982296;28;20524;-47
2022/07/15 02:04:45;;;;;;;7.05;1.50;;;18.30;50.50;;;;;;4986971;28;20055;-48
2022/07/15 02:07:12;;;;;;;4.93;1.80;;;18.30;50.70;;;;;;4983115;28;20418;-48
2022/07/15 02:09:39;;;;;;;6.97;2.35;;;18.30;50.80;;;;;;4984817;28;20494;-50
2022/07/15 02:12:07;;;;;;;8.13;2.30;;;18.30;50.80;;;;;;4985392;28;20054;-51
2022/07/15 02:14:36;;;;;;;5.28;1.77;;;18.30;50.80;;;;;;4984664;28;20465;-46
2022/07/15 02:17:04;;;;;;;8.68;2.53;;;18.30;51.00;;;;;;4978169;28;20057;-50
2022/07/15 02:19:32;;;;;;;5.97;2.30;;;18.20;51.00;;;;;;4985923;28;20050;-47
2022/07/15 02:21:59;;;;;;;4.75;1.60;;;18.30;51.30;;;;;;4980407;28;20058;-49
2022/07/15 02:24:27;;;;;;;5.28;2.13;;;18.20;51.00;;;;;;4985401;28;21517;-46
2022/07/15 02:26:54;;;;;;;7.93;2.00;;;18.20;51.10;;;;;;4983527;28;20070;-47
2022/07/15 02:29:22;;;;;;;11.93;2.28;;;18.20;51.20;;;;;;4983510;28;20490;-46
2022/07/15 02:31:51;;;;;;;4.60;1.98;;;18.20;51.20;;;;;;4981844;28;20069;-47
2022/07/15 02:34:18;;;;;;;6.53;2.22;;;18.30;51.40;;;;;;4985857;28;20506;-48
2022/07/15 02:36:46;;;;;;;7.68;2.17;;;18.30;51.40;;;;;;4983410;28;20065;-49
2022/07/15 02:39:13;;;;;;;8.02;2.10;;;18.30;51.50;;;;;;4986570;28;20053;-47
2022/07/15 02:41:41;;;;;;;8.13;2.28;;;18.30;51.40;;;;;;4983790;28;20050;-47
2022/07/15 02:44:08;;;;;;;4.03;1.67;;;18.30;51.30;;;;;;4983996;28;20057;-51
2022/07/15 02:46:36;;;;;;;9.60;2.30;;;18.30;51.20;;;;;;4980494;28;20065;-50
2022/07/15 02:49:05;;;;;;;5.78;1.85;;;18.40;51.30;;;;;;4983729;28;20061;-49
2022/07/15 02:51:32;;;;;;;6.45;2.10;;;18.30;51.40;;;;;;4983263;28;20058;-47
2022/07/15 02:54:00;;;;;;;5.60;2.00;;;18.40;51.40;;;;;;4983783;28;20510;-50
2022/07/15 02:56:27;;;;;;;7.85;1.88;;;18.40;51.40;;;;;;4981221;28;20050;-48
2022/07/15 02:59:00;;;;;;;8.48;2.78;;;18.40;51.40;;;;;;4984451;28;20114;-47
2022/07/15 03:01:28;;;;;;;8.00;1.70;;;18.30;51.50;;;;;;4978635;28;20057;-47
2022/07/15 03:03:56;;;;;;;7.97;2.15;;;18.30;51.50;;;;;;4978111;28;20065;-50
2022/07/15 03:06:25;;;;;;;5.95;2.05;;;18.30;51.60;;;;;;4980952;28;20054;-52
2022/07/15 03:08:52;;;;;;;4.18;1.73;;;18.30;51.70;;;;;;4985050;28;20050;-47
2022/07/15 03:11:20;;;;;;;5.22;2.25;;;18.30;51.70;;;;;;4980879;28;20058;-48
2022/07/15 03:13:48;;;;;;;11.25;2.20;;;18.30;51.90;;;;;;4983435;28;20510;-48
2022/07/15 03:16:15;;;;;;;7.88;2.45;;;18.20;51.90;;;;;;4978736;28;20453;-50
2022/07/15 03:18:42;;;;;;;11.60;2.33;;;18.20;52.00;;;;;;4981819;28;20050;-48
2022/07/15 03:21:11;;;;;;;9.32;2.63;;;18.20;52.20;;;;;;4980248;28;20043;-50
2022/07/15 03:23:40;;;;;;;6.78;1.70;;;18.10;52.30;;;;;;4983596;28;20395;-51
2022/07/15 03:26:07;;;;;;;9.75;3.30;;;18.10;52.20;;;;;;4982751;28;20061;-49
2022/07/15 03:28:35;;;;;;;7.47;2.35;;;18.10;52.40;;;;;;4983454;28;20050;-48
2022/07/15 03:31:03;;;;;;;5.07;2.45;;;18.10;52.60;;;;;;4981114;28;20058;-50
2022/07/15 03:33:30;;;;;;;3.58;1.70;;;18.10;52.50;;;;;;4983617;28;20053;-51
2022/07/15 03:35:57;;;;;;;4.32;1.85;;;18.10;52.30;;;;;;4983407;28;20065;-52
2022/07/15 03:38:25;;;;;;;4.20;1.70;;;18.20;52.50;;;;;;4982872;28;20050;-49
2022/07/15 03:40:54;;;;;;;4.15;1.67;;;18.20;52.40;;;;;;4976360;28;20152;-48
2022/07/15 03:43:22;;;;;;;5.88;1.90;;;18.20;52.40;;;;;;4983123;28;20061;-50
2022/07/15 03:45:50;;;;;;;3.78;1.80;;;18.20;52.40;;;;;;4980425;28;20498;-48
2022/07/15 03:48:17;;;;;;;6.85;1.80;;;18.20;52.30;;;;;;4984305;28;20046;-48
2022/07/15 03:50:45;;;;;;;5.10;2.08;;;18.20;52.40;;;;;;4983036;28;20061;-53
2022/07/15 03:53:13;;;;;;;6.13;1.98;;;18.20;52.40;;;;;;4983092;28;20058;-50
2022/07/15 03:55:40;;;;;;;6.93;2.35;;;18.30;52.30;;;;;;4983087;28;20392;-50
2022/07/15 03:58:09;;;;;;;6.05;1.85;;;18.30;52.40;;;;;;4981426;28;20441;-48
2022/07/15 04:00:36;;;;;;;4.60;1.83;;;18.30;52.30;;;;;;4982483;28;20065;-49
2022/07/15 04:03:04;;;;;;;4.85;1.98;;;18.30;52.20;;;;;;4980535;28;20494;-53
2022/07/15 04:05:31;;;;;;;8.55;2.35;;;18.30;52.20;;;;;;4979678;28;20053;-47
2022/07/15 04:07:59;;;;;;;14.73;2.75;;;18.40;52.30;;;;;;4979562;28;20062;-50
2022/07/15 04:10:27;;;;;;;12.30;2.78;;;18.40;52.50;;;;;;4972407;28;20054;-48
2022/07/15 04:12:54;;;;;;;6.70;2.38;;;18.30;52.60;;;;;;4979039;28;20601;-49
2022/07/15 04:15:23;;;;;;;8.70;2.15;;;18.30;52.70;;;;;;4978295;28;20490;-51
2022/07/15 04:17:50;;;;;;;7.35;2.15;;;18.30;52.90;;;;;;4975192;28;20046;-47
2022/07/15 04:20:18;;;;;;;5.45;2.40;;;18.20;53.00;;;;;;4976687;28;20043;-47
2022/07/15 04:22:47;;;;;;;10.13;2.65;;;18.30;53.10;;;;;;4983372;28;21334;-47
2022/07/15 04:25:17;;;;;;;5.68;2.35;;;18.20;53.10;;;;;;4982089;28;20054;-47
2022/07/15 04:27:45;;;;;;;9.63;2.72;;;18.20;53.20;;;;;;4980781;28;20061;-47
2022/07/15 04:30:13;;;;;;;7.57;2.60;;;18.20;53.10;;;;;;4979278;28;20414;-47
2022/07/15 04:32:42;;;;;;;4.97;2.45;;;18.20;53.30;;;;;;4982177;28;20433;-51
2022/07/15 04:35:10;;;;;;;8.90;2.80;;;18.30;53.40;;;;;;4981704;28;20065;-51
2022/07/15 04:37:37;;;;;;;11.77;2.80;;;18.20;53.40;;;;;;4980788;28;20061;-47
2022/07/15 04:40:07;;;;;;;9.35;2.80;;;18.20;53.30;;;;;;4981261;28;20506;-48
2022/07/15 04:42:34;;;;;;;12.48;2.80;;;18.20;53.30;;;;;;4983302;28;20054;-47
2022/07/15 04:45:01;;;;;;;8.15;2.50;;;18.20;53.30;;;;;;4983012;28;20058;-52
2022/07/15 04:47:29;;;;;;;5.78;2.20;;;18.20;53.30;;;;;;4974770;28;20054;-50
2022/07/15 04:52:44;;;;;;;9.52;2.55;;;18.20;53.50;;;;;;4985192;28;20517;-47
2022/07/15 04:55:12;;;;;;;10.68;2.50;;;18.20;53.60;;;;;;4982070;28;20058;-47
2022/07/15 04:57:39;;;;;;;9.52;2.67;;;18.20;53.80;;;;;;4976350;28;20521;-49
2022/07/15 05:00:09;;;;;;;10.50;2.58;;;18.20;53.70;;;;;;4978411;28;20508;-50
2022/07/15 05:02:36;;;;;;;10.57;2.45;;;18.20;53.90;;;;;;4977701;28;20068;-47
2022/07/15 05:05:07;;;;;;;9.68;2.92;;;18.20;53.90;;;;;;4980469;28;20050;-48
2022/07/15 05:07:35;;;;;;;13.50;5.15;;;18.20;53.90;;;;;;4981398;28;20054;-51
2022/07/15 05:10:02;;;;;;;13.60;3.97;;;18.20;53.80;;;;;;4979005;28;20050;-51
2022/07/15 05:12:29;;;;;;;15.10;3.85;;;18.20;53.90;;;;;;4982940;28;20510;-51
2022/07/15 05:14:57;;;;;;;8.02;3.10;;;18.10;54.10;;;;;;4981328;28;20061;-50
2022/07/15 05:17:25;;;;;;;6.60;2.75;;;18.10;54.00;;;;;;4974485;28;20062;-49
2022/07/15 05:19:53;;;;;;;9.68;2.30;;;18.10;54.00;;;;;;4977870;28;20058;-51
2022/07/15 05:22:22;;;;;;;7.00;2.33;;;18.10;54.00;;;;;;4981624;28;20062;-52
2022/07/15 05:24:50;;;;;;;10.75;3.08;;;18.00;54.20;;;;;;4979727;28;20050;-50
2022/07/15 05:27:17;;;;;;;9.25;3.10;;;18.00;54.40;;;;;;4978995;28;20521;-50
2022/07/15 05:29:45;;;;;;;13.52;3.70;;;17.90;54.50;;;;;;4979869;28;20414;-48
2022/07/15 05:32:13;;;;;;;10.77;3.10;;;17.90;54.70;;;;;;4981272;28;20548;-48
2022/07/15 05:34:41;;;;;;;6.68;2.60;;;17.90;54.70;;;;;;4981639;28;20070;-50
2022/07/15 05:37:08;;;;;;;9.98;3.08;;;17.80;55.00;;;;;;4978259;28;20494;-48
2022/07/15 05:39:53;;;;;;;9.20;2.72;;;17.90;55.10;;;;;;4981109;28;20645;-47
2022/07/15 05:42:20;;;;;;;8.88;2.78;;;17.80;55.20;;;;;;4979975;28;20073;-50
2022/07/15 05:44:48;;;;;;;14.15;3.38;;;17.80;55.30;;;;;;4981689;28;20054;-48
2022/07/15 05:47:16;;;;;;;10.52;2.75;;;17.90;55.50;;;;;;4980469;28;20091;-50
2022/07/15 05:49:43;;;;;;;11.10;2.85;;;17.90;55.30;;;;;;4979603;28;20494;-49
2022/07/15 05:52:11;;;;;;;9.35;2.80;;;17.90;55.20;;;;;;4977962;28;20081;-47
2022/07/15 05:54:40;;;;;;;16.05;3.45;;;17.90;55.40;;;;;;4981756;28;20054;-52
2022/07/15 05:57:07;;;;;;;13.43;3.15;;;17.90;55.10;;;;;;4976052;28;20055;-52
2022/07/15 05:59:35;;;;;;;14.98;3.50;;;17.90;55.00;;;;;;4978079;28;20367;-49
2022/07/15 06:02:02;;;;;;;13.05;2.97;;;17.90;55.20;;;;;;4977063;28;20055;-48
2022/07/15 06:04:30;;;;;;;8.02;2.63;;;17.90;55.00;;;;;;4976028;28;20435;-47
2022/07/15 06:06:57;;;;;;;13.48;2.72;;;17.90;54.90;;;;;;4977829;28;20387;-47
2022/07/15 06:09:25;;;;;;;14.75;2.90;;;18.00;55.10;;;;;;4975803;28;20495;-51
2022/07/15 06:11:54;;;;;;;8.23;2.35;;;18.00;55.10;;;;;;4981996;28;20058;-47
2022/07/15 06:14:21;;;;;;;8.80;2.30;;;18.10;54.90;;;;;;4978176;28;20061;-50
2022/07/15 06:16:49;;;;;;;11.05;2.58;;;18.00;54.00;;;;;;4983388;28;20057;-47
2022/07/15 06:19:16;;;;;;;8.55;1.90;;;18.00;54.10;;;;;;4985444;28;20069;-53
2022/07/15 06:21:44;;;;;;;15.75;2.75;;;18.00;53.90;;;;;;4981657;28;20054;-48
2022/07/15 06:24:11;;;;;;;9.65;2.05;;;18.00;53.80;;;;;;4985796;28;20081;-50
2022/07/15 06:26:39;;;;;;;12.23;2.35;;;18.00;53.90;;;;;;4980556;28;20077;-52
2022/07/15 06:29:08;;;;;;;13.85;2.20;;;17.90;53.60;;;;;;4983152;28;20058;-51
2022/07/15 06:31:35;;;;;;;10.40;2.00;;;17.90;53.60;;;;;;4984352;28;20065;-50
2022/07/15 06:34:03;;;;;;;17.67;2.53;;;17.90;53.70;;;;;;4982636;28;20058;-49
2022/07/15 06:36:31;;;;;;;9.75;1.50;;;17.90;53.90;;;;;;4979727;28;20054;-48
2022/07/15 06:38:58;;;;;;;15.00;2.22;;;17.90;54.20;;;;;;4981394;28;20058;-51
2022/07/15 06:41:26;;;;;;;10.68;1.80;;;17.90;54.20;;;;;;4984185;28;20538;-50
2022/07/15 06:43:53;;;;;;;15.52;2.33;;;17.90;54.10;;;;;;4983246;28;20414;-50
2022/07/15 06:46:22;;;;;;;12.38;2.42;;;17.90;54.10;;;;;;4978794;28;20055;-48
2022/07/15 06:48:50;;;;;;;11.65;1.83;;;18.00;53.70;;;;;;4982917;28;20058;-51
2022/07/15 06:51:17;;;;;;;10.68;2.40;;;18.00;53.90;;;;;;4983616;28;20054;-48
2022/07/15 06:53:45;;;;;;;6.22;1.85;;;18.10;52.90;;;;;;4981797;28;20089;-50
2022/07/15 06:56:12;;;;;;;9.77;2.38;;;18.10;52.80;;;;;;4983052;28;20050;-49
2022/07/15 06:58:40;;;;;;;7.10;1.75;;;18.10;52.80;;;;;;4978292;28;20050;-48
2022/07/15 07:01:08;;;;;;;8.90;1.70;;;18.20;52.60;;;;;;4979885;28;20058;-46
2022/07/15 07:03:36;;;;;;;6.93;1.77;;;18.20;52.40;;;;;;4984182;28;20054;-52
2022/07/15 07:06:06;;;;;;;10.45;1.98;;;18.30;52.20;;;;;;4978194;28;20050;-49
2022/07/15 07:08:34;;;;;;;8.57;1.83;;;18.30;52.00;;;;;;4985706;28;20410;-49
2022/07/15 07:11:01;;;;;;;7.85;2.15;;;18.40;52.10;;;;;;4981092;28;20055;-48
2022/07/15 07:13:29;;;;;;;6.45;1.48;;;18.50;52.20;;;;;;4982210;28;20054;-49
2022/07/15 07:15:56;;;;;;;10.18;1.80;;;18.50;51.60;;;;;;4981196;28;20054;-47
2022/07/15 07:18:24;;;;;;;7.93;1.80;;;18.60;51.10;;;;;;4978811;28;20058;-52
2022/07/15 07:20:53;;;;;;;8.38;1.77;;;18.60;50.90;;;;;;4984584;28;20050;-50
2022/07/15 07:23:23;;;;;;;8.82;1.95;;;18.80;51.20;;;;;;4981510;28;20062;-48
2022/07/15 07:25:50;;;;;;;10.05;1.20;;;18.80;50.50;;;;;;4981980;28;20050;-50
2022/07/15 07:28:18;;;;;;;6.95;1.80;;;18.90;50.50;;;;;;4980852;28;20066;-48
2022/07/15 07:30:46;;;;;;;8.30;2.28;;;19.00;49.70;;;;;;4979573;28;20418;-49
2022/07/15 07:33:13;;;;;;;5.30;1.33;;;19.10;49.60;;;;;;4978796;28;20061;-50
2022/07/15 07:35:42;;;;;;;8.35;1.70;;;19.10;49.70;;;;;;4981584;28;20740;-51
2022/07/15 07:38:11;;;;;;;10.98;1.80;;;19.20;49.20;;;;;;4984870;28;20050;-52
2022/07/15 07:40:39;;;;;;;7.65;1.33;;;19.20;48.60;;;;;;4982714;28;20533;-49
2022/07/15 07:43:06;;;;;;;8.23;1.50;;;19.30;47.90;;;;;;4983311;28;20058;-47
2022/07/15 07:45:34;;;;;;;8.93;1.35;;;19.30;48.00;;;;;;4978194;28;20061;-48
2022/07/15 07:48:02;;;;;;;5.60;1.25;;;19.30;48.00;;;;;;4980531;28;20418;-49
2022/07/15 07:50:29;;;;;;;4.60;1.40;;;19.30;47.70;;;;;;4978918;28;20042;-48
2022/07/15 07:52:57;;;;;;;7.90;1.20;;;19.30;47.60;;;;;;4978486;28;20054;-50
2022/07/15 07:55:26;;;;;;;4.45;1.20;;;19.30;47.90;;;;;;4979118;28;20054;-47
2022/07/15 07:57:55;;;;;;;6.80;1.10;;;19.30;48.30;;;;;;4981631;28;20065;-52
2022/07/15 08:00:23;;;;;;;7.90;1.40;;;19.40;47.50;;;;;;4980932;28;20050;-47
2022/07/15 08:02:52;;;;;;;3.78;1.10;;;19.40;47.40;;;;;;4982158;28;20069;-51
2022/07/15 08:05:20;;;;;;;5.18;1.75;;;19.40;47.70;;;;;;4984084;28;20478;-49
2022/07/15 08:07:47;;;;;;;2.80;1.23;;;19.40;46.80;;;;;;4983729;28;20066;-49
2022/07/15 08:10:17;;;;;;;8.50;1.25;;;19.30;46.90;;;;;;4981420;28;20050;-52
2022/07/15 08:12:46;;;;;;;6.28;2.13;;;19.30;46.10;;;;;;4979830;28;20054;-49
2022/07/15 08:15:15;;;;;;;3.47;0.98;;;19.30;46.70;;;;;;4976911;28;20394;-49
2022/07/15 08:17:42;;;;;;;3.67;1.42;;;19.30;46.20;;;;;;4978659;28;20065;-48
2022/07/15 08:20:13;;;;;;;5.97;1.20;;;19.30;45.90;;;;;;4984075;28;20399;-48
2022/07/15 08:22:40;;;;;;;5.15;1.58;;;19.30;45.60;;;;;;4982666;28;20418;-51
2022/07/15 08:25:09;;;;;;;4.68;0.93;;;19.30;45.20;;;;;;4983260;28;20506;-48
2022/07/15 08:27:36;;;;;;;7.40;1.38;;;19.20;45.30;;;;;;4981369;28;20058;-49
2022/07/15 08:30:06;;;;;;;8.15;1.23;;;19.20;44.90;;;;;;4981712;28;20058;-50
2022/07/15 08:32:34;;;;;;;2.95;0.70;;;19.20;44.60;;;;;;4982953;28;20065;-51
2022/07/15 08:35:01;;;;;;;2.92;1.00;;;19.10;44.80;;;;;;4983810;28;20069;-49
2022/07/15 08:37:29;;;;;;;5.03;1.75;;;19.10;44.50;;;;;;4981577;28;20438;-52
2022/07/15 08:39:56;;;;;;;12.68;1.85;;;19.10;45.00;;;;;;4982812;28;20057;-50
2022/07/15 08:42:23;;;;;;;5.82;1.58;;;19.20;44.90;;;;;;4981122;28;20053;-49
2022/07/15 08:44:53;;;;;;;6.22;1.25;;;19.20;44.40;;;;;;4978011;28;20065;-51
2022/07/15 08:47:24;;;;;;;4.82;1.17;;;19.20;44.50;;;;;;4975200;28;20065;-50
2022/07/15 08:49:55;;;;;;;5.78;1.45;;;19.30;44.80;;;;;;4979072;28;20508;-51
2022/07/15 08:52:24;;;;;;;6.45;1.20;;;19.30;44.80;;;;;;4980866;28;20486;-48
2022/07/15 08:54:52;;;;;;;4.38;1.15;;;19.30;44.50;;;;;;4979879;28;20054;-49
2022/07/15 08:57:20;;;;;;;3.55;0.98;;;19.40;44.00;;;;;;4974472;28;20517;-49
2022/07/15 08:59:47;;;;;;;4.10;1.05;;;19.40;42.70;;;;;;4977964;28;21011;-47
2022/07/15 09:02:15;;;;;;;4.07;1.00;;;19.40;43.50;;;;;;4979814;28;20062;-53
2022/07/15 09:05:22;;;;;;;6.88;1.02;;;19.40;43.80;;;;;;4983679;28;20054;-49
2022/07/15 09:07:57;;;;;;;3.17;1.30;;;19.50;44.60;;;;;;4980998;28;20054;-46
2022/07/15 09:10:26;;;;;;;5.70;0.93;;;19.50;44.90;;;;;;4980822;28;20050;-51
2022/07/15 09:12:55;;;;;;;4.72;1.25;;;19.50;44.00;;;;;;4981588;28;20064;-51
2022/07/15 09:15:33;;;;;;;3.75;1.00;;;19.60;43.30;;;;;;4977322;28;20054;-48
2022/07/15 09:18:06;;;;;;;6.18;1.25;;;19.70;43.30;;;;;;4981702;28;20418;-48
2022/07/15 09:20:35;;;;;;;4.72;0.88;;;19.80;43.10;;;;;;4982349;28;20395;-47
2022/07/15 09:23:03;;;;;;;2.50;0.70;;;20.00;43.20;;;;;;4982432;28;20062;-49
2022/07/15 09:25:34;;;;;;;4.38;1.48;;;20.00;42.90;;;;;;4980601;28;20058;-47
2022/07/15 09:28:04;;;;;;;6.20;1.65;;;20.10;43.50;;;;;;4981020;28;20062;-50
2022/07/15 09:33:35;;;;;;;4.03;0.90;;;20.30;43.10;;;;;;4978884;28;20053;-47
2022/07/15 09:36:10;;;;;;;5.82;1.13;;;20.20;42.40;;;;;;4981134;28;20054;-48
2022/07/15 09:38:42;;;;;;;5.97;1.15;;;20.20;42.10;;;;;;4980255;28;20069;-50
2022/07/15 09:41:13;;;;;;;5.78;1.30;;;20.20;42.90;;;;;;4978050;28;20046;-48
2022/07/15 09:43:45;;;;;;;5.57;1.27;;;20.20;42.80;;;;;;4978786;28;20054;-53
2022/07/15 09:46:13;;;;;;;4.20;1.05;;;20.30;42.60;;;;;;4978250;28;20062;-51
2022/07/15 09:48:42;;;;;;;5.75;1.10;;;20.40;42.60;;;;;;4979885;28;20065;-48
2022/07/15 09:51:11;;;;;;;6.60;1.40;;;20.50;42.40;;;;;;4984998;28;20046;-50
2022/07/15 09:53:40;;;;;;;5.45;1.02;;;20.60;42.30;;;;;;4980501;28;20058;-50
2022/07/15 09:56:09;;;;;;;3.72;1.00;;;20.70;41.20;;;;;;4982840;28;20062;-49
2022/07/15 09:58:39;;;;;;;8.50;1.00;;;20.80;41.10;;;;;;4981329;28;20046;-48
2022/07/15 10:01:09;;;;;;;6.22;1.02;;;20.80;40.60;;;;;;4980009;28;20482;-51
2022/07/15 10:03:37;;;;;;;3.70;0.77;;;20.90;40.00;;;;;;4983916;28;20058;-49
2022/07/15 10:06:06;;;;;;;3.47;0.85;;;20.90;40.20;;;;;;4983080;28;20053;-51
2022/07/15 10:08:36;;;;;;;2.90;0.80;;;20.90;39.60;;;;;;4982849;28;20055;-50
2022/07/15 10:11:10;;;;;;;5.45;1.00;;;20.90;39.40;;;;;;4980830;28;20065;-52
2022/07/15 10:13:43;;;;;;;;;;;20.90;40.10;;;;;;4982402;28;20046;-49
2022/07/15 10:16:31;;;;;;;2.85;0.80;;;20.90;40.10;;;;;;4983344;28;19926;-50
2022/07/15 10:19:09;;;;;;;5.63;1.17;;;20.90;38.90;;;;;;4979771;28;20399;-47
2022/07/15 10:21:42;;;;;;;4.10;1.27;;;20.90;38.80;;;;;;4983582;28;20057;-48
2022/07/15 10:24:39;;;;;;;3.33;0.90;;;20.80;39.60;;;;;;4983828;28;20414;-48
2022/07/15 10:27:25;;;;;;;4.65;0.98;;;20.80;39.70;;;;;;4981019;28;20501;-47
2022/07/15 10:29:53;;;;;;;3.38;1.00;;;20.80;39.90;;;;;;4983060;28;20058;-49
2022/07/15 10:32:21;;;;;;;4.25;1.30;;;20.80;39.10;;;;;;4984881;28;20055;-53
2022/07/15 10:34:49;;;;;;;5.55;1.30;;;20.80;39.50;;;;;;4984161;28;20050;-49
2022/07/15 10:37:16;;;;;;;3.88;1.20;;;20.80;38.90;;;;;;4984208;28;20066;-53
2022/07/15 10:40:04;;;;;;;5.18;1.50;;;20.90;38.80;;;;;;4983764;28;20058;-47
2022/07/15 10:42:59;;;;;;;8.63;1.83;;;20.90;38.60;;;;;;4983653;28;20085;-52
2022/07/15 10:45:26;;;;;;;;;;;20.90;38.40;;;;;;4983483;28;20054;-49
2022/07/15 10:48:27;;;;;;;3.25;1.10;;;21.00;38.50;;;;;;4983485;28;19952;-50
2022/07/15 10:50:54;;;;;;;4.07;1.60;;;21.10;38.30;;;;;;4982821;28;20057;-57
2022/07/15 10:53:25;;;;;;;5.70;1.40;;;21.30;38.50;;;;;;4982274;28;20135;-49
2022/07/15 10:55:54;;;;;;;3.92;1.40;;;21.30;38.90;;;;;;4979632;28;20414;-50
2022/07/15 10:58:22;;;;;;;4.30;1.27;;;21.40;38.90;;;;;;4980498;28;20521;-50
2022/07/15 11:00:50;;;;;;;5.35;1.33;;;21.50;38.80;;;;;;4981221;28;20058;-48
2022/07/15 11:03:19;;;;;;;11.20;1.50;;;21.60;37.60;;;;;;4982145;28;20054;-50
2022/07/15 11:06:05;;;;;;;4.28;1.15;;;21.60;37.40;;;;;;4980667;28;20058;-50
2022/07/15 11:08:55;;;;;;;4.35;1.30;;;21.50;37.40;;;;;;4984835;28;20477;-50
2022/07/15 11:11:49;;;;;;;3.65;1.50;;;21.50;38.00;;;;;;4984240;28;20050;-47
2022/07/15 11:14:56;;;;;;;6.85;1.88;;;21.50;37.60;;;;;;4983246;28;20050;-48
2022/07/15 11:17:29;;;;;;;10.23;2.30;;;21.40;37.20;;;;;;4970455;28;20062;-52
2022/07/15 11:19:58;;;;;;;7.18;2.22;;;21.30;37.10;;;;;;4981316;28;20062;-49
2022/07/15 11:22:29;;;;;;;5.43;2.28;;;21.30;38.00;;;;;;4983031;28;20405;-47
2022/07/15 11:24:57;;;;;;;6.30;2.45;;;21.40;38.30;;;;;;4983943;28;20058;-49
2022/07/15 11:27:27;;;;;;;6.10;2.55;;;21.50;38.50;;;;;;4983304;28;20050;-48
2022/07/15 11:29:58;;;;;;;9.73;2.20;;;21.60;38.20;;;;;;4981536;28;21938;-47
2022/07/15 11:32:26;;;;;;;5.93;1.80;;;21.70;38.20;;;;;;4981197;28;20050;-49
2022/07/15 11:34:55;;;;;;;6.43;1.50;;;21.80;37.80;;;;;;4983234;28;20054;-46
2022/07/15 11:37:25;;;;;;;3.85;1.48;;;21.90;37.40;;;;;;4981882;28;20066;-47
2022/07/15 11:40:08;;;;;;;4.20;1.60;;;21.90;37.30;;;;;;4984595;28;20062;-48
2022/07/15 11:45:35;;;;;;;3.83;1.92;;;22.10;36.10;;;;;;4986326;28;20065;-47
2022/07/15 11:48:06;;;;;;;5.07;1.80;;;22.10;37.20;;;;;;4982343;28;20058;-48
2022/07/15 11:50:34;;;;;;;4.05;1.60;;;22.10;36.70;;;;;;4983815;28;20061;-47
2022/07/15 11:53:02;;;;;;;4.95;1.92;;;22.10;35.50;;;;;;4983291;28;20491;-49
2022/07/15 11:55:29;;;;;;;9.32;2.25;;;22.00;35.30;;;;;;4983246;28;20054;-47
2022/07/15 11:57:58;;;;;;;4.70;1.58;;;21.90;35.90;;;;;;4981761;28;20062;-47
2022/07/15 12:00:30;;;;;;;4.18;1.58;;;21.90;36.50;;;;;;4983396;28;20058;-49
2022/07/15 12:03:07;;;;;;;6.15;1.73;;;21.90;36.40;;;;;;4982768;28;20050;-48
2022/07/15 12:05:35;;;;;;;3.65;1.92;;;21.90;37.20;;;;;;4976946;28;20050;-47
2022/07/15 12:08:03;;;;;;;4.28;1.55;;;21.90;36.70;;;;;;4983263;28;20525;-48
2022/07/15 12:10:35;;;;;;;5.03;1.55;;;22.00;37.40;;;;;;4981909;28;20057;-50
2022/07/15 12:13:04;;;;;;;4.35;1.48;;;22.10;37.50;;;;;;4983636;28;20062;-51
2022/07/15 12:15:33;;;;;;;3.60;1.38;;;22.20;37.70;;;;;;4981610;28;20050;-50
2022/07/15 12:18:00;;;;;;;2.80;1.30;;;22.30;37.50;;;;;;4981508;28;20061;-49
2022/07/15 12:20:28;;;;;;;7.28;1.40;;;22.30;36.50;;;;;;4982673;28;20065;-49
2022/07/15 12:23:10;;;;;;;2.75;1.02;;;22.40;36.70;;;;;;4982989;28;20534;-49
2022/07/15 12:25:38;;;;;;;4.05;1.38;;;22.50;36.60;;;;;;4981315;28;20050;-49
2022/07/15 12:28:07;;;;;;;8.30;1.80;;;22.60;36.80;;;;;;4983791;28;20065;-46
2022/07/15 12:30:37;;;;;;;6.03;1.73;;;22.60;34.50;;;;;;4980894;28;20478;-46
2022/07/15 12:33:16;;;;;;;4.18;1.55;;;22.60;34.40;;;;;;4982487;28;20053;-49
2022/07/15 12:35:43;;;;;;;6.22;2.08;;;22.60;34.80;;;;;;4980951;28;20077;-49
2022/07/15 12:38:18;;;;;;;4.45;1.77;;;22.60;35.30;;;;;;4983955;28;20058;-48
2022/07/15 12:40:46;;;;;;;3.40;1.42;;;22.70;34.50;;;;;;4982202;28;20058;-48
2022/07/15 12:43:15;;;;;;;4.28;1.80;;;22.70;35.30;;;;;;4981215;28;20050;-49
2022/07/15 12:45:44;;;;;;;4.55;1.90;;;22.80;34.80;;;;;;4979467;28;20058;-51
2022/07/15 12:48:14;;;;;;;9.52;2.13;;;22.90;34.20;;;;;;4982924;28;20062;-49
2022/07/15 12:50:59;;;;;;;2.47;1.70;;;23.00;34.10;;;;;;4981629;28;20058;-48
2022/07/15 12:53:37;;;;;;;7.65;1.95;;;23.00;34.00;;;;;;4982103;28;20054;-48
2022/07/15 12:56:06;;;;;;;11.95;2.78;;;23.00;34.10;;;;;;4980729;28;20061;-49
2022/07/15 12:58:37;;;;;;;6.18;2.13;;;23.00;35.40;;;;;;4982268;28;20065;-48
2022/07/15 13:01:07;;;;;;;4.15;1.90;;;23.00;35.00;;;;;;4980552;28;20065;-49
2022/07/15 13:03:35;;;;;;;4.32;1.60;;;23.10;34.00;;;;;;4980761;28;20046;-56
2022/07/15 13:06:03;;;;;;;9.85;1.77;;;23.10;34.50;;;;;;4979364;28;20062;-47
2022/07/15 13:08:33;;;;;;;3.97;1.60;;;23.20;34.40;;;;;;4982747;28;20410;-47